sensor_id;sensor_type;location;lat;lon;timestamp;temperature;humidity
22145;DHT22;11238;48.730;11.566;2022-10-26T00:01:04;10.00;99.90
22145;DHT22;11238;48.730;11.566;2022-10-26T00:03:31;10.00;99.90
22145;DHT22;11238;48.730;11.566;2022-10-26T00:06:08;10.00;99.90
22145;DHT22;11238;48.730;11.566;2022-10-26T00:08:35;10.00;99.90
22145;DHT22;11238;48.730;11.566;2022-10-26T00:11:01;10.00;99.90
22145;DHT22;11238;48.730;11.566;2022-10-26T00:13:27;10.00;99.90
22145;DHT22;11238;48.730;11.566;2022-10-26T00:15:53;10.00;99.90
22145;DHT22;11238;48.730;11.566;2022-10-26T00:18:19;9.90;99.90
22145;DHT22;11238;48.730;11.566;2022-10-26T00:20:45;10.00;99.90
22145;DHT22;11238;48.730;11.566;2022-10-26T00:23:11;9.90;99.90
22145;DHT22;11238;48.730;11.566;2022-10-26T00:25:37;10.00;99.90
22145;DHT22;11238;48.730;11.566;2022-10-26T00:28:03;10.00;99.90
22145;DHT22;11238;48.730;11.566;2022-10-26T00:30:28;10.00;99.90
22145;DHT22;11238;48.730;11.566;2022-10-26T00:32:54;10.00;99.90
22145;DHT22;11238;48.730;11.566;2022-10-26T00:35:20;10.00;99.90
22145;DHT22;11238;48.730;11.566;2022-10-26T00:37:46;10.00;99.90
22145;DHT22;11238;48.730;11.566;2022-10-26T00:40:12;10.10;99.90
22145;DHT22;11238;48.730;11.566;2022-10-26T00:42:38;10.10;99.90
22145;DHT22;11238;48.730;11.566;2022-10-26T00:45:20;10.10;99.90
22145;DHT22;11238;48.730;11.566;2022-10-26T00:47:54;10.10;99.90
22145;DHT22;11238;48.730;11.566;2022-10-26T00:50:27;10.10;99.90
22145;DHT22;11238;48.730;11.566;2022-10-26T00:52:57;10.10;99.90
22145;DHT22;11238;48.730;11.566;2022-10-26T00:55:29;10.10;99.90
22145;DHT22;11238;48.730;11.566;2022-10-26T00:57:56;10.10;99.90
22145;DHT22;11238;48.730;11.566;2022-10-26T01:00:23;10.10;99.90
22145;DHT22;11238;48.730;11.566;2022-10-26T01:02:50;10.10;99.90
22145;DHT22;11238;48.730;11.566;2022-10-26T01:05:18;10.10;99.90
22145;DHT22;11238;48.730;11.566;2022-10-26T01:07:44;10.10;99.90
22145;DHT22;11238;48.730;11.566;2022-10-26T01:10:11;10.10;99.90
22145;DHT22;11238;48.730;11.566;2022-10-26T01:12:39;10.10;99.90
22145;DHT22;11238;48.730;11.566;2022-10-26T01:15:05;10.10;99.90
22145;DHT22;11238;48.730;11.566;2022-10-26T01:17:54;10.10;99.90
22145;DHT22;11238;48.730;11.566;2022-10-26T01:20:46;10.10;99.90
22145;DHT22;11238;48.730;11.566;2022-10-26T01:26:27;10.20;99.90
22145;DHT22;11238;48.730;11.566;2022-10-26T01:31:33;10.30;99.90
22145;DHT22;11238;48.730;11.566;2022-10-26T01:34:12;10.30;99.90
22145;DHT22;11238;48.730;11.566;2022-10-26T01:36:44;10.30;99.90
22145;DHT22;11238;48.730;11.566;2022-10-26T01:39:27;10.30;99.90
22145;DHT22;11238;48.730;11.566;2022-10-26T01:41:59;10.30;99.90
22145;DHT22;11238;48.730;11.566;2022-10-26T01:44:36;10.30;99.90
22145;DHT22;11238;48.730;11.566;2022-10-26T01:47:11;10.30;99.90
22145;DHT22;11238;48.730;11.566;2022-10-26T01:49:44;10.30;99.90
22145;DHT22;11238;48.730;11.566;2022-10-26T01:52:11;10.30;99.90
22145;DHT22;11238;48.730;11.566;2022-10-26T01:54:37;10.30;99.90
22145;DHT22;11238;48.730;11.566;2022-10-26T01:57:05;10.40;99.90
22145;DHT22;11238;48.730;11.566;2022-10-26T02:05:29;10.40;99.90
22145;DHT22;11238;48.730;11.566;2022-10-26T02:13:38;10.40;99.90
22145;DHT22;11238;48.730;11.566;2022-10-26T02:19:01;10.40;99.90
22145;DHT22;11238;48.730;11.566;2022-10-26T02:21:36;10.40;99.90
22145;DHT22;11238;48.730;11.566;2022-10-26T02:24:05;10.40;99.90
22145;DHT22;11238;48.730;11.566;2022-10-26T02:26:32;10.50;99.90
22145;DHT22;11238;48.730;11.566;2022-10-26T02:29:02;10.40;99.90
22145;DHT22;11238;48.730;11.566;2022-10-26T02:31:33;10.50;99.90
22145;DHT22;11238;48.730;11.566;2022-10-26T02:34:02;10.50;99.90
22145;DHT22;11238;48.730;11.566;2022-10-26T02:36:34;10.40;99.90
22145;DHT22;11238;48.730;11.566;2022-10-26T02:39:02;10.50;99.90
22145;DHT22;11238;48.730;11.566;2022-10-26T02:41:31;10.50;99.90
22145;DHT22;11238;48.730;11.566;2022-10-26T02:46:37;10.40;99.90
22145;DHT22;11238;48.730;11.566;2022-10-26T02:49:03;10.50;99.90
22145;DHT22;11238;48.730;11.566;2022-10-26T02:52:05;10.50;99.90
22145;DHT22;11238;48.730;11.566;2022-10-26T02:54:51;10.40;99.90
22145;DHT22;11238;48.730;11.566;2022-10-26T02:57:37;10.40;99.90
22145;DHT22;11238;48.730;11.566;2022-10-26T03:00:12;10.40;99.90
22145;DHT22;11238;48.730;11.566;2022-10-26T03:02:43;10.40;99.90
22145;DHT22;11238;48.730;11.566;2022-10-26T03:05:30;10.50;99.90
22145;DHT22;11238;48.730;11.566;2022-10-26T03:08:01;10.50;99.90
22145;DHT22;11238;48.730;11.566;2022-10-26T03:10:28;10.40;99.90
22145;DHT22;11238;48.730;11.566;2022-10-26T03:12:54;10.40;99.90
22145;DHT22;11238;48.730;11.566;2022-10-26T03:15:20;10.40;99.90
22145;DHT22;11238;48.730;11.566;2022-10-26T03:17:45;10.40;99.90
22145;DHT22;11238;48.730;11.566;2022-10-26T03:20:14;10.40;99.90
22145;DHT22;11238;48.730;11.566;2022-10-26T03:22:40;10.40;99.90
22145;DHT22;11238;48.730;11.566;2022-10-26T03:25:06;10.40;99.90
22145;DHT22;11238;48.730;11.566;2022-10-26T03:27:33;10.40;99.90
22145;DHT22;11238;48.730;11.566;2022-10-26T03:29:59;10.40;99.90
22145;DHT22;11238;48.730;11.566;2022-10-26T03:32:25;10.50;99.90
22145;DHT22;11238;48.730;11.566;2022-10-26T03:34:51;10.50;99.90
22145;DHT22;11238;48.730;11.566;2022-10-26T03:37:21;10.50;99.90
22145;DHT22;11238;48.730;11.566;2022-10-26T03:39:48;10.50;99.90
22145;DHT22;11238;48.730;11.566;2022-10-26T03:42:14;10.50;99.90
22145;DHT22;11238;48.730;11.566;2022-10-26T03:44:40;10.50;99.90
22145;DHT22;11238;48.730;11.566;2022-10-26T03:47:06;10.50;99.90
22145;DHT22;11238;48.730;11.566;2022-10-26T03:49:32;10.50;99.90
22145;DHT22;11238;48.730;11.566;2022-10-26T03:51:57;10.50;99.90
22145;DHT22;11238;48.730;11.566;2022-10-26T03:54:23;10.50;99.90
22145;DHT22;11238;48.730;11.566;2022-10-26T03:56:49;10.50;99.90
22145;DHT22;11238;48.730;11.566;2022-10-26T03:59:17;10.50;99.90
22145;DHT22;11238;48.730;11.566;2022-10-26T04:01:46;10.50;99.90
22145;DHT22;11238;48.730;11.566;2022-10-26T04:04:12;10.40;99.90
22145;DHT22;11238;48.730;11.566;2022-10-26T04:06:37;10.50;99.90
22145;DHT22;11238;48.730;11.566;2022-10-26T04:09:06;10.50;99.90
22145;DHT22;11238;48.730;11.566;2022-10-26T04:11:37;10.50;99.90
22145;DHT22;11238;48.730;11.566;2022-10-26T04:14:06;10.50;99.90
22145;DHT22;11238;48.730;11.566;2022-10-26T04:16:32;10.50;99.90
22145;DHT22;11238;48.730;11.566;2022-10-26T04:18:58;10.50;99.90
22145;DHT22;11238;48.730;11.566;2022-10-26T04:21:42;10.50;99.90
22145;DHT22;11238;48.730;11.566;2022-10-26T04:24:09;10.50;99.90
22145;DHT22;11238;48.730;11.566;2022-10-26T04:26:36;10.50;99.90
22145;DHT22;11238;48.730;11.566;2022-10-26T04:29:05;10.50;99.90
22145;DHT22;11238;48.730;11.566;2022-10-26T04:31:34;10.50;99.90
22145;DHT22;11238;48.730;11.566;2022-10-26T04:34:00;10.50;99.90
22145;DHT22;11238;48.730;11.566;2022-10-26T04:36:26;10.50;99.90
22145;DHT22;11238;48.730;11.566;2022-10-26T04:38:52;10.50;99.90
22145;DHT22;11238;48.730;11.566;2022-10-26T04:41:18;10.50;99.90
22145;DHT22;11238;48.730;11.566;2022-10-26T04:43:44;10.50;99.90
22145;DHT22;11238;48.730;11.566;2022-10-26T04:46:10;10.60;99.90
22145;DHT22;11238;48.730;11.566;2022-10-26T04:48:56;10.50;99.90
22145;DHT22;11238;48.730;11.566;2022-10-26T04:51:31;10.60;99.90
22145;DHT22;11238;48.730;11.566;2022-10-26T04:54:00;10.60;99.90
22145;DHT22;11238;48.730;11.566;2022-10-26T04:56:27;10.60;99.90
22145;DHT22;11238;48.730;11.566;2022-10-26T04:58:59;10.60;99.90
22145;DHT22;11238;48.730;11.566;2022-10-26T05:01:25;10.60;99.90
22145;DHT22;11238;48.730;11.566;2022-10-26T05:03:52;10.60;99.90
22145;DHT22;11238;48.730;11.566;2022-10-26T05:06:18;10.70;99.90
22145;DHT22;11238;48.730;11.566;2022-10-26T05:08:44;10.70;99.90
22145;DHT22;11238;48.730;11.566;2022-10-26T05:11:22;10.70;99.90
22145;DHT22;11238;48.730;11.566;2022-10-26T05:13:51;10.70;99.90
22145;DHT22;11238;48.730;11.566;2022-10-26T05:16:19;10.80;99.90
22145;DHT22;11238;48.730;11.566;2022-10-26T05:18:49;10.70;99.90
22145;DHT22;11238;48.730;11.566;2022-10-26T05:21:15;10.70;99.90
22145;DHT22;11238;48.730;11.566;2022-10-26T05:23:51;10.70;99.90
22145;DHT22;11238;48.730;11.566;2022-10-26T05:26:27;10.70;99.90
22145;DHT22;11238;48.730;11.566;2022-10-26T05:28:53;10.60;99.90
22145;DHT22;11238;48.730;11.566;2022-10-26T05:31:20;10.50;99.90
22145;DHT22;11238;48.730;11.566;2022-10-26T05:33:49;10.50;99.90
22145;DHT22;11238;48.730;11.566;2022-10-26T05:36:18;10.60;99.90
22145;DHT22;11238;48.730;11.566;2022-10-26T05:38:45;10.60;99.90
22145;DHT22;11238;48.730;11.566;2022-10-26T05:41:11;10.60;99.90
22145;DHT22;11238;48.730;11.566;2022-10-26T05:43:50;10.60;99.90
22145;DHT22;11238;48.730;11.566;2022-10-26T05:46:16;10.60;99.90
22145;DHT22;11238;48.730;11.566;2022-10-26T05:48:53;10.70;99.90
22145;DHT22;11238;48.730;11.566;2022-10-26T05:51:19;10.70;99.90
22145;DHT22;11238;48.730;11.566;2022-10-26T05:53:50;10.70;99.90
22145;DHT22;11238;48.730;11.566;2022-10-26T05:56:33;10.70;99.90
22145;DHT22;11238;48.730;11.566;2022-10-26T05:59:02;10.80;99.90
22145;DHT22;11238;48.730;11.566;2022-10-26T06:06:41;10.90;99.90
22145;DHT22;11238;48.730;11.566;2022-10-26T06:09:10;10.90;99.90
22145;DHT22;11238;48.730;11.566;2022-10-26T06:11:36;10.90;99.90
22145;DHT22;11238;48.730;11.566;2022-10-26T06:14:05;10.90;99.90
22145;DHT22;11238;48.730;11.566;2022-10-26T06:16:37;10.90;99.90
22145;DHT22;11238;48.730;11.566;2022-10-26T06:30:04;10.70;99.90
22145;DHT22;11238;48.730;11.566;2022-10-26T06:32:38;10.70;99.90
22145;DHT22;11238;48.730;11.566;2022-10-26T06:35:25;10.80;99.90
22145;DHT22;11238;48.730;11.566;2022-10-26T06:37:54;10.80;99.90
22145;DHT22;11238;48.730;11.566;2022-10-26T06:40:22;10.80;99.90
22145;DHT22;11238;48.730;11.566;2022-10-26T06:42:51;10.80;99.90
22145;DHT22;11238;48.730;11.566;2022-10-26T06:45:21;10.80;99.90
22145;DHT22;11238;48.730;11.566;2022-10-26T06:47:56;10.90;99.90
22145;DHT22;11238;48.730;11.566;2022-10-26T06:50:41;10.80;99.90
22145;DHT22;11238;48.730;11.566;2022-10-26T06:59:24;10.90;99.90
22145;DHT22;11238;48.730;11.566;2022-10-26T07:01:53;11.00;99.90
22145;DHT22;11238;48.730;11.566;2022-10-26T07:04:19;11.10;99.90
22145;DHT22;11238;48.730;11.566;2022-10-26T07:10:32;11.20;99.90
22145;DHT22;11238;48.730;11.566;2022-10-26T07:13:00;11.30;99.90
22145;DHT22;11238;48.730;11.566;2022-10-26T07:15:25;11.40;99.90
22145;DHT22;11238;48.730;11.566;2022-10-26T07:17:51;11.40;99.90
22145;DHT22;11238;48.730;11.566;2022-10-26T07:20:19;11.50;99.90
22145;DHT22;11238;48.730;11.566;2022-10-26T07:22:50;11.50;99.90
22145;DHT22;11238;48.730;11.566;2022-10-26T07:25:17;11.60;99.90
22145;DHT22;11238;48.730;11.566;2022-10-26T07:27:42;11.70;99.90
22145;DHT22;11238;48.730;11.566;2022-10-26T07:30:09;11.70;99.90
22145;DHT22;11238;48.730;11.566;2022-10-26T07:32:34;11.80;99.90
22145;DHT22;11238;48.730;11.566;2022-10-26T07:35:00;11.80;99.90
22145;DHT22;11238;48.730;11.566;2022-10-26T07:37:27;11.80;99.90
22145;DHT22;11238;48.730;11.566;2022-10-26T07:39:52;11.90;99.90
22145;DHT22;11238;48.730;11.566;2022-10-26T07:42:19;11.90;99.90
22145;DHT22;11238;48.730;11.566;2022-10-26T07:44:44;11.90;99.90
22145;DHT22;11238;48.730;11.566;2022-10-26T07:47:10;11.90;99.90
22145;DHT22;11238;48.730;11.566;2022-10-26T07:49:36;12.00;99.90
22145;DHT22;11238;48.730;11.566;2022-10-26T07:52:02;12.10;99.90
22145;DHT22;11238;48.730;11.566;2022-10-26T07:54:27;12.10;99.90
22145;DHT22;11238;48.730;11.566;2022-10-26T07:56:53;12.20;99.90
22145;DHT22;11238;48.730;11.566;2022-10-26T07:59:19;12.20;99.90
22145;DHT22;11238;48.730;11.566;2022-10-26T08:01:45;12.30;99.90
22145;DHT22;11238;48.730;11.566;2022-10-26T08:04:11;12.30;99.90
22145;DHT22;11238;48.730;11.566;2022-10-26T08:06:36;12.40;99.90
22145;DHT22;11238;48.730;11.566;2022-10-26T08:09:02;12.50;99.90
22145;DHT22;11238;48.730;11.566;2022-10-26T08:11:28;12.50;99.90
22145;DHT22;11238;48.730;11.566;2022-10-26T08:13:55;12.60;99.90
22145;DHT22;11238;48.730;11.566;2022-10-26T08:16:21;12.70;99.90
22145;DHT22;11238;48.730;11.566;2022-10-26T08:18:48;12.70;99.90
22145;DHT22;11238;48.730;11.566;2022-10-26T08:21:13;12.80;99.90
22145;DHT22;11238;48.730;11.566;2022-10-26T08:23:41;12.80;99.90
22145;DHT22;11238;48.730;11.566;2022-10-26T08:26:07;12.90;99.90
22145;DHT22;11238;48.730;11.566;2022-10-26T08:28:36;12.90;99.90
22145;DHT22;11238;48.730;11.566;2022-10-26T08:31:03;13.00;99.90
22145;DHT22;11238;48.730;11.566;2022-10-26T08:33:29;13.00;99.90
22145;DHT22;11238;48.730;11.566;2022-10-26T08:35:59;13.00;99.90
22145;DHT22;11238;48.730;11.566;2022-10-26T08:38:25;13.10;99.90
22145;DHT22;11238;48.730;11.566;2022-10-26T08:40:52;13.10;99.90
22145;DHT22;11238;48.730;11.566;2022-10-26T08:43:32;13.20;99.90
22145;DHT22;11238;48.730;11.566;2022-10-26T08:46:15;13.20;99.90
22145;DHT22;11238;48.730;11.566;2022-10-26T08:48:46;13.20;99.90
22145;DHT22;11238;48.730;11.566;2022-10-26T08:51:22;13.30;99.90
22145;DHT22;11238;48.730;11.566;2022-10-26T08:53:59;13.30;99.90
22145;DHT22;11238;48.730;11.566;2022-10-26T08:56:34;13.30;99.90
22145;DHT22;11238;48.730;11.566;2022-10-26T08:59:22;13.40;99.90
22145;DHT22;11238;48.730;11.566;2022-10-26T09:01:52;13.40;99.90
22145;DHT22;11238;48.730;11.566;2022-10-26T09:04:25;13.50;99.90
22145;DHT22;11238;48.730;11.566;2022-10-26T09:12:51;13.70;99.90
22145;DHT22;11238;48.730;11.566;2022-10-26T09:18:38;13.80;99.90
22145;DHT22;11238;48.730;11.566;2022-10-26T09:24:14;14.00;99.90
22145;DHT22;11238;48.730;11.566;2022-10-26T09:29:22;14.10;99.90
22145;DHT22;11238;48.730;11.566;2022-10-26T09:31:50;14.20;99.90
22145;DHT22;11238;48.730;11.566;2022-10-26T09:37:25;14.30;99.90
22145;DHT22;11238;48.730;11.566;2022-10-26T09:40:12;14.30;99.90
22145;DHT22;11238;48.730;11.566;2022-10-26T09:42:42;14.30;99.90
22145;DHT22;11238;48.730;11.566;2022-10-26T09:45:58;14.40;99.90
22145;DHT22;11238;48.730;11.566;2022-10-26T09:50:54;14.40;99.90
22145;DHT22;11238;48.730;11.566;2022-10-26T09:53:21;14.50;99.90
22145;DHT22;11238;48.730;11.566;2022-10-26T09:55:48;14.80;99.90
22145;DHT22;11238;48.730;11.566;2022-10-26T09:58:27;15.00;99.90
22145;DHT22;11238;48.730;11.566;2022-10-26T10:00:54;15.20;99.90
22145;DHT22;11238;48.730;11.566;2022-10-26T10:03:28;15.30;99.90
22145;DHT22;11238;48.730;11.566;2022-10-26T10:08:40;15.70;99.90
22145;DHT22;11238;48.730;11.566;2022-10-26T10:11:14;15.80;99.90
22145;DHT22;11238;48.730;11.566;2022-10-26T10:13:44;15.90;99.90
22145;DHT22;11238;48.730;11.566;2022-10-26T10:16:22;15.90;99.90
22145;DHT22;11238;48.730;11.566;2022-10-26T10:18:58;15.90;99.90
22145;DHT22;11238;48.730;11.566;2022-10-26T10:21:39;15.80;99.90
22145;DHT22;11238;48.730;11.566;2022-10-26T10:24:36;15.80;99.90
22145;DHT22;11238;48.730;11.566;2022-10-26T10:27:04;15.90;99.90
22145;DHT22;11238;48.730;11.566;2022-10-26T10:29:40;15.90;99.90
22145;DHT22;11238;48.730;11.566;2022-10-26T10:32:31;15.90;99.90
22145;DHT22;11238;48.730;11.566;2022-10-26T10:48:01;15.80;99.90
22145;DHT22;11238;48.730;11.566;2022-10-26T10:50:28;15.80;99.90
22145;DHT22;11238;48.730;11.566;2022-10-26T10:53:15;15.70;99.90
22145;DHT22;11238;48.730;11.566;2022-10-26T10:55:55;15.70;99.90
22145;DHT22;11238;48.730;11.566;2022-10-26T10:58:38;15.70;99.90
22145;DHT22;11238;48.730;11.566;2022-10-26T11:01:12;15.70;99.90
22145;DHT22;11238;48.730;11.566;2022-10-26T11:03:58;15.70;99.90
22145;DHT22;11238;48.730;11.566;2022-10-26T11:06:28;15.70;99.90
22145;DHT22;11238;48.730;11.566;2022-10-26T11:08:59;15.70;99.90
22145;DHT22;11238;48.730;11.566;2022-10-26T11:11:32;15.70;99.90
22145;DHT22;11238;48.730;11.566;2022-10-26T11:16:47;15.80;99.90
22145;DHT22;11238;48.730;11.566;2022-10-26T11:19:39;15.90;99.90
22145;DHT22;11238;48.730;11.566;2022-10-26T11:22:12;15.90;99.90
22145;DHT22;11238;48.730;11.566;2022-10-26T11:27:18;16.10;99.90
22145;DHT22;11238;48.730;11.566;2022-10-26T11:29:58;16.10;99.90
22145;DHT22;11238;48.730;11.566;2022-10-26T11:35:44;16.30;99.90
22145;DHT22;11238;48.730;11.566;2022-10-26T11:38:16;16.40;99.90
22145;DHT22;11238;48.730;11.566;2022-10-26T11:40:51;16.40;99.90
22145;DHT22;11238;48.730;11.566;2022-10-26T11:43:38;16.30;99.90
22145;DHT22;11238;48.730;11.566;2022-10-26T11:46:12;16.40;99.90
22145;DHT22;11238;48.730;11.566;2022-10-26T11:53:57;16.40;99.90
22145;DHT22;11238;48.730;11.566;2022-10-26T11:56:43;16.40;99.90
22145;DHT22;11238;48.730;11.566;2022-10-26T11:59:19;16.50;99.90
22145;DHT22;11238;48.730;11.566;2022-10-26T12:01:48;16.50;99.90
22145;DHT22;11238;48.730;11.566;2022-10-26T12:04:18;16.50;99.90
22145;DHT22;11238;48.730;11.566;2022-10-26T12:06:46;16.50;99.90
22145;DHT22;11238;48.730;11.566;2022-10-26T12:09:24;16.60;99.90
22145;DHT22;11238;48.730;11.566;2022-10-26T12:12:37;16.60;99.90
22145;DHT22;11238;48.730;11.566;2022-10-26T12:15:15;16.60;99.90
22145;DHT22;11238;48.730;11.566;2022-10-26T12:17:57;16.60;99.90
22145;DHT22;11238;48.730;11.566;2022-10-26T12:23:10;16.60;99.90
22145;DHT22;11238;48.730;11.566;2022-10-26T12:25:36;16.60;99.90
22145;DHT22;11238;48.730;11.566;2022-10-26T12:28:01;16.70;99.90
22145;DHT22;11238;48.730;11.566;2022-10-26T12:30:30;16.70;99.90
22145;DHT22;11238;48.730;11.566;2022-10-26T12:33:28;16.80;99.90
22145;DHT22;11238;48.730;11.566;2022-10-26T12:35:55;16.80;99.90
22145;DHT22;11238;48.730;11.566;2022-10-26T12:43:31;16.90;99.90
22145;DHT22;11238;48.730;11.566;2022-10-26T12:54:00;17.10;99.90
22145;DHT22;11238;48.730;11.566;2022-10-26T13:01:41;17.50;99.90
22145;DHT22;11238;48.730;11.566;2022-10-26T13:04:24;17.70;99.90
22145;DHT22;11238;48.730;11.566;2022-10-26T13:07:57;17.90;99.90
22145;DHT22;11238;48.730;11.566;2022-10-26T13:10:20;18.00;99.90
22145;DHT22;11238;48.730;11.566;2022-10-26T13:12:51;18.20;99.90
22145;DHT22;11238;48.730;11.566;2022-10-26T13:18:18;18.40;99.90
22145;DHT22;11238;48.730;11.566;2022-10-26T13:21:10;18.40;99.90
22145;DHT22;11238;48.730;11.566;2022-10-26T13:23:46;18.20;99.90
22145;DHT22;11238;48.730;11.566;2022-10-26T13:26:18;18.20;99.90
22145;DHT22;11238;48.730;11.566;2022-10-26T13:28:55;18.10;99.90
22145;DHT22;11238;48.730;11.566;2022-10-26T13:34:00;17.90;99.90
22145;DHT22;11238;48.730;11.566;2022-10-26T13:36:58;17.90;99.90
22145;DHT22;11238;48.730;11.566;2022-10-26T13:39:36;17.90;99.90
22145;DHT22;11238;48.730;11.566;2022-10-26T13:42:04;17.90;99.90
22145;DHT22;11238;48.730;11.566;2022-10-26T13:50:07;18.00;99.90
22145;DHT22;11238;48.730;11.566;2022-10-26T13:52:43;18.10;99.90
22145;DHT22;11238;48.730;11.566;2022-10-26T13:55:21;18.10;99.90
22145;DHT22;11238;48.730;11.566;2022-10-26T13:58:16;18.00;99.90
22145;DHT22;11238;48.730;11.566;2022-10-26T14:01:20;17.90;99.90
22145;DHT22;11238;48.730;11.566;2022-10-26T14:03:47;18.00;99.90
22145;DHT22;11238;48.730;11.566;2022-10-26T14:06:28;18.10;99.90
22145;DHT22;11238;48.730;11.566;2022-10-26T14:09:00;18.30;99.90
22145;DHT22;11238;48.730;11.566;2022-10-26T14:11:32;18.60;99.90
22145;DHT22;11238;48.730;11.566;2022-10-26T14:13:59;18.70;99.90
22145;DHT22;11238;48.730;11.566;2022-10-26T14:16:29;18.80;99.90
22145;DHT22;11238;48.730;11.566;2022-10-26T14:18:56;18.70;99.90
22145;DHT22;11238;48.730;11.566;2022-10-26T14:21:21;18.70;99.90
22145;DHT22;11238;48.730;11.566;2022-10-26T14:23:58;18.50;99.90
22145;DHT22;11238;48.730;11.566;2022-10-26T14:26:36;18.50;99.90
22145;DHT22;11238;48.730;11.566;2022-10-26T14:29:03;18.60;99.90
22145;DHT22;11238;48.730;11.566;2022-10-26T14:31:32;18.50;99.90
22145;DHT22;11238;48.730;11.566;2022-10-26T14:34:02;18.60;99.90
22145;DHT22;11238;48.730;11.566;2022-10-26T14:36:37;18.60;99.90
22145;DHT22;11238;48.730;11.566;2022-10-26T14:39:34;18.60;99.90
22145;DHT22;11238;48.730;11.566;2022-10-26T14:42:13;18.50;99.90
22145;DHT22;11238;48.730;11.566;2022-10-26T14:44:40;18.50;99.90
22145;DHT22;11238;48.730;11.566;2022-10-26T14:47:23;18.40;99.90
22145;DHT22;11238;48.730;11.566;2022-10-26T14:49:50;18.40;99.90
22145;DHT22;11238;48.730;11.566;2022-10-26T14:52:38;18.40;99.90
22145;DHT22;11238;48.730;11.566;2022-10-26T14:55:13;18.20;99.90
22145;DHT22;11238;48.730;11.566;2022-10-26T14:57:44;18.20;99.90
22145;DHT22;11238;48.730;11.566;2022-10-26T15:02:38;18.10;99.90
22145;DHT22;11238;48.730;11.566;2022-10-26T15:07:49;17.90;99.90
22145;DHT22;11238;48.730;11.566;2022-10-26T15:13:25;17.80;99.90
22145;DHT22;11238;48.730;11.566;2022-10-26T15:15:54;17.80;99.90
22145;DHT22;11238;48.730;11.566;2022-10-26T15:18:21;17.80;99.90
22145;DHT22;11238;48.730;11.566;2022-10-26T15:20:49;17.70;99.90
22145;DHT22;11238;48.730;11.566;2022-10-26T15:23:16;17.70;99.90
22145;DHT22;11238;48.730;11.566;2022-10-26T15:25:54;17.70;99.90
22145;DHT22;11238;48.730;11.566;2022-10-26T15:33:40;17.60;99.90
22145;DHT22;11238;48.730;11.566;2022-10-26T15:36:16;17.50;99.90
22145;DHT22;11238;48.730;11.566;2022-10-26T15:38:43;17.40;99.90
22145;DHT22;11238;48.730;11.566;2022-10-26T15:41:25;17.30;99.90
22145;DHT22;11238;48.730;11.566;2022-10-26T15:43:53;17.30;99.90
22145;DHT22;11238;48.730;11.566;2022-10-26T15:46:24;17.30;99.90
22145;DHT22;11238;48.730;11.566;2022-10-26T15:48:59;17.30;99.90
22145;DHT22;11238;48.730;11.566;2022-10-26T15:51:25;17.20;99.90
22145;DHT22;11238;48.730;11.566;2022-10-26T15:53:51;17.10;99.90
22145;DHT22;11238;48.730;11.566;2022-10-26T15:56:19;17.00;99.90
22145;DHT22;11238;48.730;11.566;2022-10-26T15:58:45;17.00;99.90
22145;DHT22;11238;48.730;11.566;2022-10-26T16:01:16;17.00;99.90
22145;DHT22;11238;48.730;11.566;2022-10-26T16:03:42;17.00;99.90
22145;DHT22;11238;48.730;11.566;2022-10-26T16:06:17;16.90;99.90
22145;DHT22;11238;48.730;11.566;2022-10-26T16:08:51;16.90;99.90
22145;DHT22;11238;48.730;11.566;2022-10-26T16:11:18;16.90;99.90
22145;DHT22;11238;48.730;11.566;2022-10-26T16:13:44;16.90;99.90
22145;DHT22;11238;48.730;11.566;2022-10-26T16:16:12;16.90;99.90
22145;DHT22;11238;48.730;11.566;2022-10-26T16:18:38;16.80;99.90
22145;DHT22;11238;48.730;11.566;2022-10-26T16:21:04;16.70;99.90
22145;DHT22;11238;48.730;11.566;2022-10-26T16:23:30;16.70;99.90
22145;DHT22;11238;48.730;11.566;2022-10-26T16:25:56;16.70;99.90
22145;DHT22;11238;48.730;11.566;2022-10-26T16:28:22;16.70;99.90
22145;DHT22;11238;48.730;11.566;2022-10-26T16:30:48;16.60;99.90
22145;DHT22;11238;48.730;11.566;2022-10-26T16:33:14;16.60;99.90
22145;DHT22;11238;48.730;11.566;2022-10-26T16:35:40;16.60;99.90
22145;DHT22;11238;48.730;11.566;2022-10-26T16:38:08;16.50;99.90
22145;DHT22;11238;48.730;11.566;2022-10-26T16:40:37;16.30;99.90
22145;DHT22;11238;48.730;11.566;2022-10-26T16:43:03;16.30;99.90
22145;DHT22;11238;48.730;11.566;2022-10-26T16:45:28;16.30;99.90
22145;DHT22;11238;48.730;11.566;2022-10-26T16:47:54;16.20;99.90
22145;DHT22;11238;48.730;11.566;2022-10-26T16:50:20;16.20;99.90
22145;DHT22;11238;48.730;11.566;2022-10-26T16:52:46;16.20;99.90
22145;DHT22;11238;48.730;11.566;2022-10-26T16:55:12;16.30;99.90
22145;DHT22;11238;48.730;11.566;2022-10-26T16:57:44;16.20;99.90
22145;DHT22;11238;48.730;11.566;2022-10-26T17:01:18;16.20;99.90
22145;DHT22;11238;48.730;11.566;2022-10-26T17:07:40;16.20;99.90
22145;DHT22;11238;48.730;11.566;2022-10-26T17:10:18;16.20;99.90
22145;DHT22;11238;48.730;11.566;2022-10-26T17:13:04;16.20;99.90
22145;DHT22;11238;48.730;11.566;2022-10-26T17:15:31;16.20;99.90
22145;DHT22;11238;48.730;11.566;2022-10-26T17:18:00;16.20;99.90
22145;DHT22;11238;48.730;11.566;2022-10-26T17:20:26;16.10;99.90
22145;DHT22;11238;48.730;11.566;2022-10-26T17:22:51;16.20;99.90
22145;DHT22;11238;48.730;11.566;2022-10-26T17:25:18;16.20;99.90
22145;DHT22;11238;48.730;11.566;2022-10-26T17:27:43;16.10;99.90
22145;DHT22;11238;48.730;11.566;2022-10-26T17:30:10;16.10;99.90
22145;DHT22;11238;48.730;11.566;2022-10-26T17:32:36;16.10;99.90
22145;DHT22;11238;48.730;11.566;2022-10-26T17:35:10;16.00;99.90
22145;DHT22;11238;48.730;11.566;2022-10-26T17:37:39;16.00;99.90
22145;DHT22;11238;48.730;11.566;2022-10-26T17:40:05;16.00;99.90
22145;DHT22;11238;48.730;11.566;2022-10-26T17:42:45;15.90;99.90
22145;DHT22;11238;48.730;11.566;2022-10-26T17:45:14;15.90;99.90
22145;DHT22;11238;48.730;11.566;2022-10-26T17:47:40;16.00;99.90
22145;DHT22;11238;48.730;11.566;2022-10-26T17:50:09;15.90;99.90
22145;DHT22;11238;48.730;11.566;2022-10-26T17:52:35;15.90;99.90
22145;DHT22;11238;48.730;11.566;2022-10-26T17:55:01;15.90;99.90
22145;DHT22;11238;48.730;11.566;2022-10-26T17:57:27;15.90;99.90
22145;DHT22;11238;48.730;11.566;2022-10-26T17:59:53;15.90;99.90
22145;DHT22;11238;48.730;11.566;2022-10-26T18:02:19;15.80;99.90
22145;DHT22;11238;48.730;11.566;2022-10-26T18:04:45;15.80;99.90
22145;DHT22;11238;48.730;11.566;2022-10-26T18:07:22;15.80;99.90
22145;DHT22;11238;48.730;11.566;2022-10-26T18:09:48;15.80;99.90